Portada
METAR-TAF:

METAR-TAF

Aeropuertos :

Pratt Industrial Airport

Pratt, Kansas, Estados Unidos

latitud: 37-42N, longitud: 098-45W, altitud: 595 m

Observación

El informe se hizo hace 19 minutos, a las 06:55 UTC
Viento 12 kt del sur con ráfagas de 17 kt
Temperatura 26°C
Humedad 70%
Presión 1012 hPa
Visibilidad: 16.1 km
Cielo despejado

METAR: KPTT 070655Z AUTO 17012G17KT 10SM CLR 26/20 A2988 RMK AO2 T02560200

Hora: 02:14 (07:14 UTC)


TAF: falta

Observaciones y pronósticos meteorológicos de más de 4000 aeropuertos (mensajes METAR y TAF).

Los puntos amarillos y rojos representan las estaciones disponibles.

Ponga el ratón en el punto deseado para ver el nombre de la estación.

Haga clic para ver las observaciones y los pronósticos meteorológicos.

Para cambiar el mapa : haga clic en los botones verdes con una cruz de color negro para hacer un zoom, en el botón verde con un guión para alejar o en las flechas verdes para mapas adyacentes.


METAR-TAF: